createdAt,value
2022-08-26T00:02:19.407Z,17.15
2022-08-26T00:04:49.551Z,17.10
2022-08-26T00:07:19.102Z,17.09
2022-08-26T00:09:50.051Z,17.09
2022-08-26T00:12:18.602Z,17.04
2022-08-26T00:14:56.494Z,17.00
2022-08-26T00:17:25.454Z,17.00
2022-08-26T00:19:55.687Z,17.01
2022-08-26T00:22:24.183Z,17.00
2022-08-26T00:24:55.207Z,17.02
2022-08-26T00:27:24.018Z,17.02
2022-08-26T00:29:54.470Z,17.02
2022-08-26T00:32:25.242Z,16.99
2022-08-26T00:34:54.888Z,16.97
2022-08-26T00:37:23.540Z,16.92
2022-08-26T00:39:55.255Z,16.88
2022-08-26T00:42:29.275Z,16.83
2022-08-26T00:44:58.054Z,16.80
2022-08-26T00:47:33.831Z,16.76
2022-08-26T00:50:06.262Z,16.70
2022-08-26T00:52:36.280Z,16.65
2022-08-26T00:55:19.748Z,16.61
2022-08-26T00:57:49.353Z,16.56
2022-08-26T01:00:21.661Z,16.53
2022-08-26T01:02:51.954Z,16.50
2022-08-26T01:05:21.197Z,16.45
2022-08-26T01:07:50.097Z,16.41
2022-08-26T01:10:22.648Z,16.34
2022-08-26T01:12:56.625Z,16.31
2022-08-26T01:15:30.276Z,16.25
2022-08-26T01:18:02.277Z,16.20
2022-08-26T01:20:39.296Z,16.14
2022-08-26T01:23:10.617Z,16.09
2022-08-26T01:25:43.269Z,16.03
2022-08-26T01:28:16.800Z,15.95
2022-08-26T01:30:48.236Z,15.86
2022-08-26T01:33:20.507Z,15.78
2022-08-26T01:35:49.438Z,15.74
2022-08-26T01:38:21.520Z,15.73
2022-08-26T01:40:52.785Z,15.73
2022-08-26T01:43:27.730Z,15.72
2022-08-26T01:45:57.187Z,15.70
2022-08-26T01:48:32.048Z,15.71
2022-08-26T01:51:02.472Z,15.68
2022-08-26T01:53:33.631Z,15.64
2022-08-26T01:56:04.499Z,15.61
2022-08-26T01:58:38.603Z,15.57
2022-08-26T02:01:08.127Z,15.55
2022-08-26T02:03:44.658Z,15.49
2022-08-26T02:06:13.298Z,15.43
2022-08-26T02:08:46.844Z,15.42
2022-08-26T02:11:18.455Z,15.43
2022-08-26T02:13:50.482Z,15.41
2022-08-26T02:16:23.586Z,15.40
2022-08-26T02:18:55.348Z,15.40
2022-08-26T02:21:24.937Z,15.40
2022-08-26T02:23:56.094Z,15.37
2022-08-26T02:26:27.295Z,15.36
2022-08-26T02:29:04.112Z,15.31
2022-08-26T02:31:32.974Z,15.31
2022-08-26T02:34:10.845Z,15.33
2022-08-26T02:36:39.873Z,15.30
2022-08-26T02:39:10.533Z,15.30
2022-08-26T02:41:44.777Z,15.26
2022-08-26T02:44:14.602Z,15.25
2022-08-26T02:46:46.857Z,15.24
2022-08-26T02:49:16.980Z,15.26
2022-08-26T02:51:45.810Z,15.25
2022-08-26T02:54:16.487Z,15.23
2022-08-26T02:56:45.978Z,15.21
2022-08-26T02:59:15.548Z,15.15
2022-08-26T03:01:45.234Z,15.12
2022-08-26T03:04:14.446Z,15.05
2022-08-26T03:06:43.959Z,15.04
2022-08-26T03:09:22.607Z,15.03
2022-08-26T03:11:52.059Z,14.98
2022-08-26T03:14:21.051Z,14.96
2022-08-26T03:16:52.039Z,14.91
2022-08-26T03:19:21.752Z,14.88
2022-08-26T03:21:53.153Z,14.84
2022-08-26T03:24:29.187Z,14.80
2022-08-26T03:26:58.259Z,14.75
2022-08-26T03:29:44.860Z,14.68
2022-08-26T03:32:19.242Z,14.61
2022-08-26T03:34:48.243Z,14.56
2022-08-26T03:37:17.272Z,14.58
2022-08-26T03:39:49.324Z,14.57
2022-08-26T03:42:18.585Z,14.60
2022-08-26T03:44:51.758Z,14.61
2022-08-26T03:47:20.830Z,14.61
2022-08-26T03:49:49.459Z,14.65
2022-08-26T03:52:21.387Z,14.65
2022-08-26T03:54:52.168Z,14.68
2022-08-26T03:57:21.097Z,14.71
2022-08-26T03:59:51.626Z,14.71
2022-08-26T04:02:20.770Z,14.70
2022-08-26T04:04:49.975Z,14.70
2022-08-26T04:07:19.474Z,14.72
2022-08-26T04:09:48.963Z,14.74
2022-08-26T04:12:20.116Z,14.73
2022-08-26T04:14:49.599Z,14.71
2022-08-26T04:17:18.697Z,14.71
2022-08-26T04:19:47.713Z,14.71
2022-08-26T04:22:16.517Z,14.74
2022-08-26T04:24:54.467Z,14.78
2022-08-26T04:27:26.935Z,14.81
2022-08-26T04:29:58.155Z,14.81
2022-08-26T04:32:28.181Z,14.85
2022-08-26T04:34:57.970Z,14.87
2022-08-26T04:37:32.652Z,14.89
2022-08-26T04:40:02.120Z,14.94
2022-08-26T04:42:34.740Z,14.99
2022-08-26T04:45:05.890Z,15.07
2022-08-26T04:47:41.031Z,15.18
2022-08-26T04:50:11.123Z,15.25
2022-08-26T04:52:40.426Z,15.32
2022-08-26T04:55:10.998Z,15.43
2022-08-26T04:57:41.154Z,15.52
2022-08-26T05:00:13.037Z,15.60
2022-08-26T05:02:43.264Z,15.70
2022-08-26T05:05:12.731Z,15.77
2022-08-26T05:07:42.255Z,15.85
2022-08-26T05:10:11.726Z,15.93
2022-08-26T05:12:43.117Z,15.98
2022-08-26T05:15:13.823Z,16.05
2022-08-26T05:17:50.607Z,16.14
2022-08-26T05:20:22.687Z,16.22
2022-08-26T05:22:56.704Z,16.27
2022-08-26T05:25:25.739Z,16.34
2022-08-26T05:27:57.680Z,16.41
2022-08-26T05:30:26.542Z,16.48
2022-08-26T05:32:56.071Z,16.53
2022-08-26T05:35:25.859Z,16.61
2022-08-26T05:37:56.188Z,16.65
2022-08-26T05:40:25.535Z,16.72
2022-08-26T05:42:55.280Z,16.76
2022-08-26T05:45:27.338Z,16.83
2022-08-26T05:47:57.855Z,16.91
2022-08-26T05:50:27.284Z,16.98
2022-08-26T05:52:56.503Z,17.09
2022-08-26T05:55:25.860Z,17.22
2022-08-26T05:57:55.499Z,17.34
2022-08-26T06:00:26.034Z,17.48
2022-08-26T06:02:55.150Z,17.60
2022-08-26T06:05:24.474Z,17.71
2022-08-26T06:08:14.391Z,17.84
2022-08-26T06:10:48.161Z,17.97
2022-08-26T06:13:18.634Z,18.13
2022-08-26T06:15:51.200Z,18.37
2022-08-26T06:18:23.792Z,18.51
2022-08-26T06:20:57.745Z,18.60
2022-08-26T06:23:46.761Z,18.73
2022-08-26T06:26:17.130Z,18.91
2022-08-26T06:28:46.309Z,19.02
2022-08-26T06:31:18.028Z,19.09
2022-08-26T06:33:47.546Z,19.18
2022-08-26T06:36:19.653Z,19.30
2022-08-26T06:38:50.576Z,19.39
2022-08-26T06:41:22.145Z,19.49
2022-08-26T06:43:52.018Z,19.61
2022-08-26T06:46:23.728Z,19.70
2022-08-26T06:48:56.290Z,19.79
2022-08-26T06:51:30.151Z,19.89
2022-08-26T06:54:01.637Z,20.07
2022-08-26T06:56:35.640Z,20.29
2022-08-26T06:59:07.622Z,20.46
2022-08-26T07:01:43.061Z,20.64
2022-08-26T07:04:15.693Z,20.76
2022-08-26T07:06:52.822Z,21.02
2022-08-26T07:09:24.409Z,21.29
2022-08-26T07:11:54.502Z,21.47
2022-08-26T07:14:26.206Z,21.63
2022-08-26T07:16:57.123Z,21.75
2022-08-26T07:19:27.681Z,21.91
2022-08-26T07:22:03.227Z,22.08
2022-08-26T07:24:32.718Z,22.29
2022-08-26T07:27:13.879Z,22.51
2022-08-26T07:29:43.993Z,22.68
2022-08-26T07:32:23.124Z,22.90
2022-08-26T07:34:53.980Z,23.00
2022-08-26T07:37:23.026Z,23.08
2022-08-26T07:39:52.382Z,23.22
2022-08-26T07:42:22.112Z,23.50
2022-08-26T07:44:54.070Z,23.77
2022-08-26T07:47:26.048Z,24.04
2022-08-26T07:49:56.594Z,24.30
2022-08-26T07:52:27.234Z,24.45
2022-08-26T07:54:59.565Z,24.72
2022-08-26T07:57:29.892Z,25.03
2022-08-26T07:59:59.964Z,25.17
2022-08-26T08:02:31.502Z,25.29
2022-08-26T08:05:01.454Z,25.42
2022-08-26T08:07:44.317Z,25.69
2022-08-26T08:10:19.070Z,25.96
2022-08-26T08:12:53.461Z,26.05
2022-08-26T08:15:25.380Z,26.19
2022-08-26T08:18:00.677Z,26.41
2022-08-26T08:20:30.252Z,26.56
2022-08-26T08:23:00.725Z,26.66
2022-08-26T08:25:30.170Z,26.81
2022-08-26T08:27:59.944Z,26.94
2022-08-26T08:30:29.640Z,27.17
2022-08-26T08:32:59.956Z,27.38
2022-08-26T08:35:29.342Z,27.63
2022-08-26T08:37:58.855Z,27.82
2022-08-26T08:40:29.622Z,28.05
2022-08-26T08:43:04.231Z,28.29
2022-08-26T08:45:38.600Z,28.53
2022-08-26T08:48:27.657Z,28.63
2022-08-26T08:51:05.382Z,28.78
2022-08-26T08:53:37.899Z,29.01
2022-08-26T08:56:23.786Z,29.26
2022-08-26T08:59:02.537Z,29.48
2022-08-26T09:01:52.497Z,29.40
2022-08-26T09:04:52.890Z,29.16
2022-08-26T09:07:27.263Z,28.85
2022-08-26T09:10:00.503Z,28.56
2022-08-26T09:12:34.236Z,28.48
2022-08-26T09:15:07.517Z,28.61
2022-08-26T09:17:45.029Z,28.95
2022-08-26T09:20:22.194Z,29.33
2022-08-26T09:22:54.417Z,29.61
2022-08-26T09:25:24.874Z,29.89
2022-08-26T09:27:55.341Z,30.17
2022-08-26T09:30:27.976Z,30.42
2022-08-26T09:33:03.416Z,30.53
2022-08-26T09:35:45.673Z,30.57
2022-08-26T09:38:26.897Z,30.80
2022-08-26T09:40:59.700Z,30.96
2022-08-26T09:43:29.469Z,31.03
2022-08-26T09:46:14.144Z,31.13
2022-08-26T09:48:44.173Z,31.38
2022-08-26T09:51:31.542Z,31.58
2022-08-26T09:54:05.693Z,31.59
2022-08-26T09:56:41.343Z,31.76
2022-08-26T09:59:12.518Z,32.00
2022-08-26T10:01:44.760Z,32.12
2022-08-26T10:04:23.139Z,32.04
2022-08-26T10:07:00.411Z,31.58
2022-08-26T10:09:37.776Z,31.08
2022-08-26T10:12:12.340Z,30.99
2022-08-26T10:14:49.709Z,31.30
2022-08-26T10:17:27.905Z,31.73
2022-08-26T10:20:22.443Z,32.22
2022-08-26T10:23:00.985Z,32.65
2022-08-26T10:25:34.373Z,32.88
2022-08-26T10:28:11.446Z,33.19
2022-08-26T10:30:48.892Z,33.36
2022-08-26T10:33:18.832Z,33.58
2022-08-26T10:35:52.650Z,33.72
2022-08-26T10:38:29.529Z,33.84
2022-08-26T10:41:10.455Z,33.89
2022-08-26T10:43:45.405Z,33.99
2022-08-26T10:46:18.614Z,34.19
2022-08-26T10:48:56.265Z,34.15
2022-08-26T10:51:35.812Z,34.09
2022-08-26T10:54:13.786Z,34.11
2022-08-26T10:56:51.655Z,34.17
2022-08-26T10:59:31.047Z,34.26
2022-08-26T11:02:07.370Z,34.36
2022-08-26T11:04:50.752Z,34.38
2022-08-26T11:07:52.275Z,34.41
2022-08-26T11:10:58.011Z,34.58
2022-08-26T11:14:01.416Z,34.75
2022-08-26T11:16:43.696Z,34.82
2022-08-26T11:20:01.451Z,34.74
2022-08-26T11:22:36.333Z,34.82
2022-08-26T11:25:14.912Z,34.88
2022-08-26T11:27:57.443Z,34.94
2022-08-26T11:30:42.878Z,34.88
2022-08-26T11:33:32.946Z,35.01
2022-08-26T11:36:01.794Z,35.19
2022-08-26T11:38:43.767Z,35.47
2022-08-26T11:41:19.132Z,35.65
2022-08-26T11:43:52.430Z,35.74
2022-08-26T11:46:27.599Z,35.71
2022-08-26T11:49:02.723Z,35.74
2022-08-26T11:51:35.971Z,35.70
2022-08-26T11:54:13.704Z,35.64
2022-08-26T11:56:47.189Z,35.66
2022-08-26T11:59:24.562Z,35.92
2022-08-26T12:01:58.740Z,36.10
2022-08-26T12:04:33.736Z,36.12
2022-08-26T12:07:09.089Z,36.28
2022-08-26T12:09:51.833Z,36.25
2022-08-26T12:12:25.637Z,36.30
2022-08-26T12:15:16.206Z,36.42
2022-08-26T12:17:49.433Z,36.26
2022-08-26T12:20:46.120Z,36.02
2022-08-26T12:23:43.313Z,35.98
2022-08-26T12:26:20.290Z,35.81
2022-08-26T12:28:57.510Z,35.73
2022-08-26T12:31:37.678Z,35.81
2022-08-26T12:34:17.456Z,35.83
2022-08-26T12:36:50.173Z,35.92
2022-08-26T12:39:27.938Z,35.76
2022-08-26T12:41:58.553Z,35.72
2022-08-26T12:44:53.180Z,35.67
2022-08-26T12:47:35.149Z,35.54
2022-08-26T12:50:21.720Z,35.21
2022-08-26T12:52:59.811Z,34.77
2022-08-26T12:55:39.525Z,34.53
2022-08-26T12:58:14.591Z,34.63
2022-08-26T13:00:45.022Z,34.75
2022-08-26T13:03:33.594Z,34.64
2022-08-26T13:06:28.425Z,34.52
2022-08-26T13:08:59.312Z,34.38
2022-08-26T13:11:33.477Z,34.09
2022-08-26T13:14:07.386Z,33.76
2022-08-26T13:16:40.102Z,33.68
2022-08-26T13:19:12.931Z,33.74
2022-08-26T13:21:50.206Z,33.93
2022-08-26T13:24:25.095Z,34.03
2022-08-26T13:26:56.585Z,34.28
2022-08-26T13:29:30.399Z,34.32
2022-08-26T13:32:01.727Z,34.31
2022-08-26T13:34:34.420Z,34.23
2022-08-26T13:37:03.619Z,34.09
2022-08-26T13:39:32.558Z,33.99
2022-08-26T13:42:02.043Z,34.06
2022-08-26T13:44:34.215Z,34.16
2022-08-26T13:47:03.210Z,34.12
2022-08-26T13:49:34.357Z,34.04
2022-08-26T13:52:04.040Z,33.93
2022-08-26T13:54:33.698Z,33.90
2022-08-26T13:57:05.144Z,33.79
2022-08-26T13:59:34.284Z,33.77
2022-08-26T14:02:04.653Z,33.73
2022-08-26T14:04:35.985Z,33.61
2022-08-26T14:07:05.527Z,33.67
2022-08-26T14:09:38.224Z,33.61
2022-08-26T14:12:08.213Z,33.59
2022-08-26T14:14:37.075Z,33.53
2022-08-26T14:17:06.950Z,33.41
2022-08-26T14:19:39.969Z,33.29
2022-08-26T14:22:09.381Z,33.18
2022-08-26T14:24:40.822Z,33.14
2022-08-26T14:27:16.028Z,33.06
2022-08-26T14:29:45.807Z,32.94
2022-08-26T14:32:23.172Z,32.83
2022-08-26T14:34:53.719Z,32.67
2022-08-26T14:37:23.651Z,32.60
2022-08-26T14:39:53.408Z,32.55
2022-08-26T14:42:31.765Z,32.42
2022-08-26T14:45:03.603Z,32.31
2022-08-26T14:47:33.527Z,32.22
2022-08-26T14:50:04.255Z,32.17
2022-08-26T14:52:53.451Z,32.11
2022-08-26T14:55:21.858Z,32.00
2022-08-26T14:57:58.134Z,31.86
2022-08-26T15:00:30.614Z,31.75
2022-08-26T15:03:03.118Z,31.69
2022-08-26T15:05:35.867Z,31.60
2022-08-26T15:08:10.682Z,31.58
2022-08-26T15:10:40.409Z,31.47
2022-08-26T15:13:14.648Z,31.38
2022-08-26T15:15:44.470Z,31.30
2022-08-26T15:18:14.061Z,31.23
2022-08-26T15:20:46.980Z,31.18
2022-08-26T15:23:16.355Z,31.12
2022-08-26T15:25:47.197Z,31.03
2022-08-26T15:28:20.190Z,30.94
2022-08-26T15:30:55.735Z,30.82
2022-08-26T15:33:25.124Z,30.74
2022-08-26T15:35:56.103Z,30.63
2022-08-26T15:38:30.991Z,30.54
2022-08-26T15:41:05.557Z,30.39
2022-08-26T15:43:34.877Z,30.27
2022-08-26T15:46:04.237Z,30.19
2022-08-26T15:48:33.145Z,30.08
2022-08-26T15:51:03.690Z,29.97
2022-08-26T15:53:34.759Z,29.88
2022-08-26T15:56:05.690Z,29.81
2022-08-26T15:58:34.466Z,29.69
2022-08-26T16:01:11.100Z,29.58
2022-08-26T16:03:42.668Z,29.47
2022-08-26T16:06:16.362Z,29.39
2022-08-26T16:08:45.559Z,29.28
2022-08-26T16:11:14.930Z,29.19
2022-08-26T16:13:44.164Z,29.08
2022-08-26T16:16:13.637Z,28.97
2022-08-26T16:18:45.175Z,28.87
2022-08-26T16:21:21.570Z,28.77
2022-08-26T16:23:51.267Z,28.65
2022-08-26T16:26:23.109Z,28.54
2022-08-26T16:28:52.024Z,28.44
2022-08-26T16:31:22.212Z,28.34
2022-08-26T16:33:51.540Z,28.24
2022-08-26T16:36:21.883Z,28.16
2022-08-26T16:38:55.052Z,28.09
2022-08-26T16:41:25.195Z,27.99
2022-08-26T16:43:54.387Z,27.88
2022-08-26T16:46:26.352Z,27.76
2022-08-26T16:48:56.711Z,27.63
2022-08-26T16:51:29.378Z,27.49
2022-08-26T16:53:59.373Z,27.33
2022-08-26T16:56:34.107Z,27.21
2022-08-26T16:59:04.512Z,27.10
2022-08-26T17:01:35.710Z,26.95
2022-08-26T17:04:05.585Z,26.86
2022-08-26T17:06:36.254Z,26.76
2022-08-26T17:09:05.432Z,26.64
2022-08-26T17:11:34.707Z,26.51
2022-08-26T17:14:03.558Z,26.39
2022-08-26T17:16:33.604Z,26.26
2022-08-26T17:19:02.734Z,26.13
2022-08-26T17:21:36.778Z,26.01
2022-08-26T17:24:07.122Z,25.85
2022-08-26T17:26:38.003Z,25.71
2022-08-26T17:29:07.383Z,25.52
2022-08-26T17:31:36.329Z,25.37
2022-08-26T17:34:06.068Z,25.22
2022-08-26T17:36:36.290Z,25.11
2022-08-26T17:39:05.841Z,24.99
2022-08-26T17:41:34.635Z,24.90
2022-08-26T17:44:04.189Z,24.81
2022-08-26T17:46:36.496Z,24.76
2022-08-26T17:49:07.807Z,24.67
2022-08-26T17:51:38.310Z,24.58
2022-08-26T17:54:07.946Z,24.48
2022-08-26T17:56:36.867Z,24.38
2022-08-26T17:59:06.155Z,24.29
2022-08-26T18:04:05.286Z,24.11
2022-08-26T18:06:35.183Z,24.03
2022-08-26T18:09:05.297Z,23.95
2022-08-26T18:11:34.369Z,23.88
2022-08-26T18:14:03.394Z,23.85
2022-08-26T18:16:38.239Z,23.80
2022-08-26T18:19:12.965Z,23.77
2022-08-26T18:21:41.817Z,23.76
2022-08-26T18:24:14.011Z,23.70
2022-08-26T18:26:48.593Z,23.62
2022-08-26T18:29:18.437Z,23.55
2022-08-26T18:31:47.213Z,23.48
2022-08-26T18:34:17.090Z,23.38
2022-08-26T18:36:46.134Z,23.32
2022-08-26T18:39:19.586Z,23.28
2022-08-26T18:41:53.782Z,23.23
2022-08-26T18:44:23.961Z,23.19
2022-08-26T18:46:53.702Z,23.21
2022-08-26T18:49:22.991Z,23.25
2022-08-26T18:51:52.788Z,23.25
2022-08-26T18:54:23.146Z,23.25
2022-08-26T18:56:52.476Z,23.24
2022-08-26T18:59:29.626Z,23.20
2022-08-26T19:01:59.273Z,23.13
2022-08-26T19:04:28.715Z,23.10
2022-08-26T19:06:57.521Z,23.05
2022-08-26T19:09:28.325Z,23.00
2022-08-26T19:11:57.762Z,22.95
2022-08-26T19:14:27.812Z,22.88
2022-08-26T19:16:56.511Z,22.85
2022-08-26T19:19:25.125Z,22.84
2022-08-26T19:21:54.229Z,22.86
2022-08-26T19:24:26.023Z,22.85
2022-08-26T19:27:01.449Z,22.81
2022-08-26T19:29:33.939Z,22.79
2022-08-26T19:32:03.434Z,22.73
2022-08-26T19:34:33.447Z,22.67
2022-08-26T19:37:02.933Z,22.58
2022-08-26T19:39:31.869Z,22.53
2022-08-26T19:42:03.045Z,22.55
2022-08-26T19:44:49.720Z,22.52
2022-08-26T19:47:25.753Z,22.45
2022-08-26T19:49:55.698Z,22.42
2022-08-26T19:52:30.215Z,22.39
2022-08-26T19:54:59.592Z,22.34
2022-08-26T19:57:30.286Z,22.28
2022-08-26T20:00:01.219Z,22.21
2022-08-26T20:02:31.248Z,22.19
2022-08-26T20:05:00.330Z,22.17
2022-08-26T20:07:29.735Z,22.15
2022-08-26T20:09:59.631Z,22.11
2022-08-26T20:12:32.357Z,22.09
2022-08-26T20:15:05.145Z,22.03
2022-08-26T20:17:34.984Z,21.99
2022-08-26T20:20:32.937Z,21.90
2022-08-26T20:23:06.193Z,21.87
2022-08-26T20:25:36.269Z,21.82
2022-08-26T20:28:06.713Z,21.79
2022-08-26T20:30:35.542Z,21.74
2022-08-26T20:33:04.234Z,21.70
2022-08-26T20:35:32.892Z,21.66
2022-08-26T20:38:02.033Z,21.63
2022-08-26T20:40:31.064Z,21.56
2022-08-26T20:43:00.245Z,21.49
2022-08-26T20:45:30.771Z,21.40
2022-08-26T20:47:59.872Z,21.36
2022-08-26T20:50:29.361Z,21.30
2022-08-26T20:52:58.003Z,21.24
2022-08-26T20:55:35.502Z,21.16
2022-08-26T20:58:04.426Z,21.12
2022-08-26T21:00:34.846Z,21.07
2022-08-26T21:03:03.986Z,21.02
2022-08-26T21:05:34.868Z,20.99
2022-08-26T21:08:03.937Z,20.94
2022-08-26T21:10:33.919Z,20.93
2022-08-26T21:13:03.087Z,20.91
2022-08-26T21:15:33.059Z,20.88
2022-08-26T21:18:09.406Z,20.89
2022-08-26T21:20:39.487Z,20.87
2022-08-26T21:23:08.491Z,20.86
2022-08-26T21:25:37.433Z,20.83
2022-08-26T21:28:07.106Z,20.85
2022-08-26T21:30:39.437Z,20.85
2022-08-26T21:33:10.097Z,20.85
2022-08-26T21:35:39.098Z,20.86
2022-08-26T21:38:08.075Z,20.82
2022-08-26T21:40:37.322Z,20.78
2022-08-26T21:43:06.081Z,20.75
2022-08-26T21:45:35.054Z,20.74
2022-08-26T21:48:04.630Z,20.71
2022-08-26T21:50:38.475Z,20.69
2022-08-26T21:53:07.477Z,20.62
2022-08-26T21:55:38.822Z,20.56
2022-08-26T21:58:08.975Z,20.50
2022-08-26T22:00:37.844Z,20.42
2022-08-26T22:03:07.002Z,20.33
2022-08-26T22:05:44.180Z,20.21
2022-08-26T22:08:13.269Z,20.12
2022-08-26T22:10:43.224Z,20.05
2022-08-26T22:13:12.869Z,19.96
2022-08-26T22:15:44.621Z,19.89
2022-08-26T22:18:13.465Z,19.83
2022-08-26T22:20:46.406Z,19.73
2022-08-26T22:23:15.759Z,19.63
2022-08-26T22:25:44.963Z,19.59
2022-08-26T22:28:14.473Z,19.54
2022-08-26T22:30:45.220Z,19.49
2022-08-26T22:33:15.970Z,19.45
2022-08-26T22:35:48.240Z,19.42
2022-08-26T22:38:18.445Z,19.38
2022-08-26T22:40:55.604Z,19.28
2022-08-26T22:43:25.454Z,19.24
2022-08-26T22:45:54.628Z,19.17
2022-08-26T22:48:28.552Z,19.15
2022-08-26T22:51:06.803Z,19.15
2022-08-26T22:53:35.970Z,19.14
2022-08-26T22:56:10.426Z,19.12
2022-08-26T22:58:39.453Z,19.16
2022-08-26T23:01:09.881Z,19.18
2022-08-26T23:03:38.899Z,19.19
2022-08-26T23:06:11.519Z,19.13
2022-08-26T23:08:42.087Z,19.08
2022-08-26T23:11:12.240Z,19.03
2022-08-26T23:13:40.782Z,19.01
2022-08-26T23:16:12.516Z,18.98
2022-08-26T23:18:41.832Z,18.96
2022-08-26T23:21:12.417Z,18.90
2022-08-26T23:23:40.970Z,18.87
2022-08-26T23:26:10.320Z,18.86
2022-08-26T23:28:40.636Z,18.81
2022-08-26T23:31:09.615Z,18.77
2022-08-26T23:33:55.896Z,18.73
2022-08-26T23:36:29.240Z,18.67
2022-08-26T23:39:06.912Z,18.62
2022-08-26T23:43:45.783Z,18.55
2022-08-26T23:45:03.812Z,18.46
2022-08-26T23:47:32.503Z,18.38
2022-08-26T23:50:01.120Z,18.32
2022-08-26T23:52:51.785Z,18.26
2022-08-26T23:55:20.735Z,18.21
2022-08-26T23:57:49.289Z,18.18
